sensor_id;sensor_type;location;lat;lon;timestamp;temperature;humidity
68257;DHT22;55069;51.568;4.656;2023-01-19T00:00:14;2.44;91.23
68257;DHT22;55069;51.568;4.656;2023-01-19T00:02:40;2.47;91.15
68257;DHT22;55069;51.568;4.656;2023-01-19T00:05:08;2.47;91.24
68257;DHT22;55069;51.568;4.656;2023-01-19T00:07:33;2.47;91.31
68257;DHT22;55069;51.568;4.656;2023-01-19T00:09:59;2.48;91.35
68257;DHT22;55069;51.568;4.656;2023-01-19T00:12:24;2.47;91.14
68257;DHT22;55069;51.568;4.656;2023-01-19T00:14:50;2.52;91.09
68257;DHT22;55069;51.568;4.656;2023-01-19T00:17:15;2.51;90.58
68257;DHT22;55069;51.568;4.656;2023-01-19T00:19:41;2.45;90.98
68257;DHT22;55069;51.568;4.656;2023-01-19T00:22:06;2.45;90.84
68257;DHT22;55069;51.568;4.656;2023-01-19T00:24:32;2.47;90.73
68257;DHT22;55069;51.568;4.656;2023-01-19T00:26:58;2.62;90.66
68257;DHT22;55069;51.568;4.656;2023-01-19T00:29:24;2.61;90.37
68257;DHT22;55069;51.568;4.656;2023-01-19T00:31:49;2.59;90.20
68257;DHT22;55069;51.568;4.656;2023-01-19T00:34:15;2.65;90.13
68257;DHT22;55069;51.568;4.656;2023-01-19T00:36:41;2.72;90.11
68257;DHT22;55069;51.568;4.656;2023-01-19T00:39:07;2.71;89.90
68257;DHT22;55069;51.568;4.656;2023-01-19T00:41:32;2.74;89.66
68257;DHT22;55069;51.568;4.656;2023-01-19T00:44:16;2.75;89.57
68257;DHT22;55069;51.568;4.656;2023-01-19T00:46:42;2.76;89.75
68257;DHT22;55069;51.568;4.656;2023-01-19T00:49:07;2.76;89.63
68257;DHT22;55069;51.568;4.656;2023-01-19T00:51:33;2.79;89.08
68257;DHT22;55069;51.568;4.656;2023-01-19T00:53:58;2.85;89.30
68257;DHT22;55069;51.568;4.656;2023-01-19T00:56:29;2.86;89.32
68257;DHT22;55069;51.568;4.656;2023-01-19T00:58:55;2.85;88.80
68257;DHT22;55069;51.568;4.656;2023-01-19T01:01:20;2.88;88.84
68257;DHT22;55069;51.568;4.656;2023-01-19T01:03:46;2.84;88.87
68257;DHT22;55069;51.568;4.656;2023-01-19T01:06:11;2.81;88.83
68257;DHT22;55069;51.568;4.656;2023-01-19T01:08:37;2.84;89.44
68257;DHT22;55069;51.568;4.656;2023-01-19T01:11:02;2.82;89.31
68257;DHT22;55069;51.568;4.656;2023-01-19T01:13:28;2.75;90.28
68257;DHT22;55069;51.568;4.656;2023-01-19T01:15:54;2.72;90.59
68257;DHT22;55069;51.568;4.656;2023-01-19T01:18:20;2.71;90.73
68257;DHT22;55069;51.568;4.656;2023-01-19T01:20:46;2.64;91.13
68257;DHT22;55069;51.568;4.656;2023-01-19T01:23:12;2.61;91.47
68257;DHT22;55069;51.568;4.656;2023-01-19T01:25:38;2.51;91.77
68257;DHT22;55069;51.568;4.656;2023-01-19T01:28:05;2.45;92.26
68257;DHT22;55069;51.568;4.656;2023-01-19T01:30:35;2.45;92.82
68257;DHT22;55069;51.568;4.656;2023-01-19T01:33:04;2.48;92.71
68257;DHT22;55069;51.568;4.656;2023-01-19T01:35:30;2.52;92.83
68257;DHT22;55069;51.568;4.656;2023-01-19T01:37:57;2.55;92.67
68257;DHT22;55069;51.568;4.656;2023-01-19T01:40:23;2.52;92.94
68257;DHT22;55069;51.568;4.656;2023-01-19T01:42:48;2.52;93.25
68257;DHT22;55069;51.568;4.656;2023-01-19T01:45:27;2.51;93.17
68257;DHT22;55069;51.568;4.656;2023-01-19T01:47:54;2.41;92.77
68257;DHT22;55069;51.568;4.656;2023-01-19T01:50:28;2.27;92.72
68257;DHT22;55069;51.568;4.656;2023-01-19T01:53:09;2.23;92.76
68257;DHT22;55069;51.568;4.656;2023-01-19T01:55:40;2.14;92.67
68257;DHT22;55069;51.568;4.656;2023-01-19T01:58:07;2.13;92.74
68257;DHT22;55069;51.568;4.656;2023-01-19T02:00:34;2.18;93.19
68257;DHT22;55069;51.568;4.656;2023-01-19T02:03:21;2.18;93.31
68257;DHT22;55069;51.568;4.656;2023-01-19T02:05:47;2.23;93.45
68257;DHT22;55069;51.568;4.656;2023-01-19T02:08:25;2.28;93.52
68257;DHT22;55069;51.568;4.656;2023-01-19T02:11:12;2.24;93.86
68257;DHT22;55069;51.568;4.656;2023-01-19T02:13:56;2.28;93.91
68257;DHT22;55069;51.568;4.656;2023-01-19T02:16:22;2.30;93.90
68257;DHT22;55069;51.568;4.656;2023-01-19T02:18:47;2.28;93.95
68257;DHT22;55069;51.568;4.656;2023-01-19T02:23:58;2.37;94.30
68257;DHT22;55069;51.568;4.656;2023-01-19T02:26:32;2.38;94.28
68257;DHT22;55069;51.568;4.656;2023-01-19T02:29:05;2.38;94.16
68257;DHT22;55069;51.568;4.656;2023-01-19T02:31:33;2.40;94.05
68257;DHT22;55069;51.568;4.656;2023-01-19T02:34:00;2.34;94.01
68257;DHT22;55069;51.568;4.656;2023-01-19T02:36:44;2.11;94.02
68257;DHT22;55069;51.568;4.656;2023-01-19T02:39:13;2.07;94.23
68257;DHT22;55069;51.568;4.656;2023-01-19T02:41:45;1.83;94.06
68257;DHT22;55069;51.568;4.656;2023-01-19T02:44:13;1.54;93.79
68257;DHT22;55069;51.568;4.656;2023-01-19T02:46:39;1.47;94.00
68257;DHT22;55069;51.568;4.656;2023-01-19T02:49:05;1.40;94.20
68257;DHT22;55069;51.568;4.656;2023-01-19T02:51:31;1.28;94.27
68257;DHT22;55069;51.568;4.656;2023-01-19T03:07:22;0.84;95.30
68257;DHT22;55069;51.568;4.656;2023-01-19T03:09:53;0.83;95.39
68257;DHT22;55069;51.568;4.656;2023-01-19T03:13:00;0.84;95.53
68257;DHT22;55069;51.568;4.656;2023-01-19T03:18:02;1.05;95.68
68257;DHT22;55069;51.568;4.656;2023-01-19T03:20:31;1.10;95.76
68257;DHT22;55069;51.568;4.656;2023-01-19T03:23:00;1.19;95.81
68257;DHT22;55069;51.568;4.656;2023-01-19T03:25:28;1.23;95.92
68257;DHT22;55069;51.568;4.656;2023-01-19T03:27:56;1.24;95.83
68257;DHT22;55069;51.568;4.656;2023-01-19T03:30:28;1.20;95.76
68257;DHT22;55069;51.568;4.656;2023-01-19T03:33:02;1.23;95.68
68257;DHT22;55069;51.568;4.656;2023-01-19T03:35:32;1.17;95.49
68257;DHT22;55069;51.568;4.656;2023-01-19T03:38:00;1.23;95.39
68257;DHT22;55069;51.568;4.656;2023-01-19T03:40:29;1.31;95.59
68257;DHT22;55069;51.568;4.656;2023-01-19T03:42:58;1.38;95.66
68257;DHT22;55069;51.568;4.656;2023-01-19T03:45:23;1.42;95.71
68257;DHT22;55069;51.568;4.656;2023-01-19T03:47:50;1.51;95.69
68257;DHT22;55069;51.568;4.656;2023-01-19T03:50:24;1.48;95.58
68257;DHT22;55069;51.568;4.656;2023-01-19T03:53:06;1.44;95.34
68257;DHT22;55069;51.568;4.656;2023-01-19T03:55:33;1.37;95.01
68257;DHT22;55069;51.568;4.656;2023-01-19T03:57:59;1.41;95.06
68257;DHT22;55069;51.568;4.656;2023-01-19T04:00:24;1.42;95.20
68257;DHT22;55069;51.568;4.656;2023-01-19T04:02:50;1.40;95.19
68257;DHT22;55069;51.568;4.656;2023-01-19T04:05:16;1.35;95.05
68257;DHT22;55069;51.568;4.656;2023-01-19T04:07:41;1.35;95.13
68257;DHT22;55069;51.568;4.656;2023-01-19T04:10:07;1.45;95.22
68257;DHT22;55069;51.568;4.656;2023-01-19T04:12:39;1.44;95.21
68257;DHT22;55069;51.568;4.656;2023-01-19T04:15:06;1.40;95.10
68257;DHT22;55069;51.568;4.656;2023-01-19T04:17:31;1.35;95.08
68257;DHT22;55069;51.568;4.656;2023-01-19T04:19:57;1.37;95.14
68257;DHT22;55069;51.568;4.656;2023-01-19T04:22:23;1.40;95.19
68257;DHT22;55069;51.568;4.656;2023-01-19T04:24:48;1.35;95.21
68257;DHT22;55069;51.568;4.656;2023-01-19T04:27:13;1.38;95.21
68257;DHT22;55069;51.568;4.656;2023-01-19T04:29:40;1.38;95.25
68257;DHT22;55069;51.568;4.656;2023-01-19T04:32:07;1.38;95.24
68257;DHT22;55069;51.568;4.656;2023-01-19T04:34:32;1.37;95.21
68257;DHT22;55069;51.568;4.656;2023-01-19T04:36:58;1.40;95.24
68257;DHT22;55069;51.568;4.656;2023-01-19T04:39:23;1.38;95.24
68257;DHT22;55069;51.568;4.656;2023-01-19T04:41:49;1.38;95.22
68257;DHT22;55069;51.568;4.656;2023-01-19T04:44:16;1.32;95.13
68257;DHT22;55069;51.568;4.656;2023-01-19T04:46:42;1.37;95.12
68257;DHT22;55069;51.568;4.656;2023-01-19T04:49:08;1.38;95.13
68257;DHT22;55069;51.568;4.656;2023-01-19T04:51:33;1.40;95.17
68257;DHT22;55069;51.568;4.656;2023-01-19T04:54:00;1.44;95.26
68257;DHT22;55069;51.568;4.656;2023-01-19T04:56:26;1.47;95.26
68257;DHT22;55069;51.568;4.656;2023-01-19T04:58:52;1.42;95.21
68257;DHT22;55069;51.568;4.656;2023-01-19T05:01:17;1.47;95.13
68257;DHT22;55069;51.568;4.656;2023-01-19T05:03:43;1.51;95.18
68257;DHT22;55069;51.568;4.656;2023-01-19T05:06:09;1.50;95.13
68257;DHT22;55069;51.568;4.656;2023-01-19T05:08:34;1.48;95.11
68257;DHT22;55069;51.568;4.656;2023-01-19T05:11:00;1.48;95.00
68257;DHT22;55069;51.568;4.656;2023-01-19T05:13:25;1.50;94.97
68257;DHT22;55069;51.568;4.656;2023-01-19T05:15:51;1.47;94.94
68257;DHT22;55069;51.568;4.656;2023-01-19T05:18:16;1.47;94.89
68257;DHT22;55069;51.568;4.656;2023-01-19T05:20:42;1.41;94.81
68257;DHT22;55069;51.568;4.656;2023-01-19T05:23:07;1.40;94.88
68257;DHT22;55069;51.568;4.656;2023-01-19T05:25:33;1.38;94.96
68257;DHT22;55069;51.568;4.656;2023-01-19T05:27:58;1.42;95.11
68257;DHT22;55069;51.568;4.656;2023-01-19T05:30:24;1.52;95.16
68257;DHT22;55069;51.568;4.656;2023-01-19T05:32:49;1.62;95.25
68257;DHT22;55069;51.568;4.656;2023-01-19T05:35:15;1.58;95.26
68257;DHT22;55069;51.568;4.656;2023-01-19T05:37:41;1.65;95.20
68257;DHT22;55069;51.568;4.656;2023-01-19T05:40:07;1.68;95.25
68257;DHT22;55069;51.568;4.656;2023-01-19T05:42:33;1.70;95.19
68257;DHT22;55069;51.568;4.656;2023-01-19T05:44:59;1.73;95.27
68257;DHT22;55069;51.568;4.656;2023-01-19T05:47:28;1.70;95.30
68257;DHT22;55069;51.568;4.656;2023-01-19T05:49:53;1.75;95.31
68257;DHT22;55069;51.568;4.656;2023-01-19T05:52:19;1.76;95.27
68257;DHT22;55069;51.568;4.656;2023-01-19T05:54:46;1.82;95.17
68257;DHT22;55069;51.568;4.656;2023-01-19T05:57:13;1.79;95.09
68257;DHT22;55069;51.568;4.656;2023-01-19T05:59:39;1.83;95.12
68257;DHT22;55069;51.568;4.656;2023-01-19T06:02:05;1.76;95.17
68257;DHT22;55069;51.568;4.656;2023-01-19T06:04:30;1.73;95.23
68257;DHT22;55069;51.568;4.656;2023-01-19T06:06:56;1.61;95.21
68257;DHT22;55069;51.568;4.656;2023-01-19T06:09:21;1.54;95.31
68257;DHT22;55069;51.568;4.656;2023-01-19T06:11:47;1.56;95.33
68257;DHT22;55069;51.568;4.656;2023-01-19T06:14:13;1.58;95.47
68257;DHT22;55069;51.568;4.656;2023-01-19T06:16:39;1.58;95.50
68257;DHT22;55069;51.568;4.656;2023-01-19T06:19:04;1.52;95.68
68257;DHT22;55069;51.568;4.656;2023-01-19T06:21:30;1.52;95.64
68257;DHT22;55069;51.568;4.656;2023-01-19T06:23:56;1.48;95.72
68257;DHT22;55069;51.568;4.656;2023-01-19T06:26:23;1.47;95.78
68257;DHT22;55069;51.568;4.656;2023-01-19T06:28:50;1.45;95.81
68257;DHT22;55069;51.568;4.656;2023-01-19T06:31:16;1.45;95.85
68257;DHT22;55069;51.568;4.656;2023-01-19T06:33:42;1.45;95.87
68257;DHT22;55069;51.568;4.656;2023-01-19T06:36:08;1.54;95.91
68257;DHT22;55069;51.568;4.656;2023-01-19T06:38:33;1.50;95.97
68257;DHT22;55069;51.568;4.656;2023-01-19T06:40:59;1.45;96.01
68257;DHT22;55069;51.568;4.656;2023-01-19T06:43:26;1.45;96.02
68257;DHT22;55069;51.568;4.656;2023-01-19T06:45:52;1.48;96.06
68257;DHT22;55069;51.568;4.656;2023-01-19T06:48:19;1.50;96.09
68257;DHT22;55069;51.568;4.656;2023-01-19T06:50:45;1.55;96.11
68257;DHT22;55069;51.568;4.656;2023-01-19T06:53:11;1.59;96.09
68257;DHT22;55069;51.568;4.656;2023-01-19T06:55:37;1.52;96.02
68257;DHT22;55069;51.568;4.656;2023-01-19T06:58:03;1.54;95.99
68257;DHT22;55069;51.568;4.656;2023-01-19T07:00:29;1.48;96.02
68257;DHT22;55069;51.568;4.656;2023-01-19T07:02:55;1.47;96.02
68257;DHT22;55069;51.568;4.656;2023-01-19T07:05:21;1.45;96.00
68257;DHT22;55069;51.568;4.656;2023-01-19T07:07:51;1.40;96.01
68257;DHT22;55069;51.568;4.656;2023-01-19T07:10:16;1.41;95.96
68257;DHT22;55069;51.568;4.656;2023-01-19T07:12:42;1.37;96.02
68257;DHT22;55069;51.568;4.656;2023-01-19T07:15:10;1.30;96.03
68257;DHT22;55069;51.568;4.656;2023-01-19T07:17:36;1.26;96.01
68257;DHT22;55069;51.568;4.656;2023-01-19T07:20:02;1.28;96.03
68257;DHT22;55069;51.568;4.656;2023-01-19T07:22:28;1.27;96.06
68257;DHT22;55069;51.568;4.656;2023-01-19T07:24:53;1.20;96.11
68257;DHT22;55069;51.568;4.656;2023-01-19T07:27:19;1.27;96.16
68257;DHT22;55069;51.568;4.656;2023-01-19T07:29:44;1.20;96.14
68257;DHT22;55069;51.568;4.656;2023-01-19T07:32:10;1.14;96.10
68257;DHT22;55069;51.568;4.656;2023-01-19T07:34:35;1.08;96.07
68257;DHT22;55069;51.568;4.656;2023-01-19T07:37:01;1.01;96.02
68257;DHT22;55069;51.568;4.656;2023-01-19T07:39:26;0.97;95.99
68257;DHT22;55069;51.568;4.656;2023-01-19T07:41:52;0.99;96.02
68257;DHT22;55069;51.568;4.656;2023-01-19T07:44:18;0.94;96.10
68257;DHT22;55069;51.568;4.656;2023-01-19T07:46:44;1.01;96.22
68257;DHT22;55069;51.568;4.656;2023-01-19T07:49:10;1.04;96.25
68257;DHT22;55069;51.568;4.656;2023-01-19T07:51:35;1.03;96.24
68257;DHT22;55069;51.568;4.656;2023-01-19T07:54:01;1.00;96.27
68257;DHT22;55069;51.568;4.656;2023-01-19T07:56:27;1.05;96.28
68257;DHT22;55069;51.568;4.656;2023-01-19T07:58:55;1.10;96.30
68257;DHT22;55069;51.568;4.656;2023-01-19T08:01:21;1.05;96.29
68257;DHT22;55069;51.568;4.656;2023-01-19T08:03:47;1.17;96.35
68257;DHT22;55069;51.568;4.656;2023-01-19T08:06:26;1.19;96.38
68257;DHT22;55069;51.568;4.656;2023-01-19T08:08:54;1.20;96.36
68257;DHT22;55069;51.568;4.656;2023-01-19T08:11:19;1.14;96.29
68257;DHT22;55069;51.568;4.656;2023-01-19T08:13:45;1.11;96.31
68257;DHT22;55069;51.568;4.656;2023-01-19T08:16:10;1.10;96.33
68257;DHT22;55069;51.568;4.656;2023-01-19T08:18:36;1.07;96.31
68257;DHT22;55069;51.568;4.656;2023-01-19T08:21:01;1.05;96.29
68257;DHT22;55069;51.568;4.656;2023-01-19T08:23:27;1.08;96.29
68257;DHT22;55069;51.568;4.656;2023-01-19T08:25:52;1.07;96.29
68257;DHT22;55069;51.568;4.656;2023-01-19T08:28:18;1.05;96.30
68257;DHT22;55069;51.568;4.656;2023-01-19T08:30:44;1.01;96.28
68257;DHT22;55069;51.568;4.656;2023-01-19T08:33:12;0.99;96.33
68257;DHT22;55069;51.568;4.656;2023-01-19T08:35:42;1.08;96.34
68257;DHT22;55069;51.568;4.656;2023-01-19T08:38:08;1.08;96.36
68257;DHT22;55069;51.568;4.656;2023-01-19T08:40:37;1.08;96.36
68257;DHT22;55069;51.568;4.656;2023-01-19T08:43:10;1.16;96.35
68257;DHT22;55069;51.568;4.656;2023-01-19T08:45:38;1.13;96.34
68257;DHT22;55069;51.568;4.656;2023-01-19T08:48:11;1.19;96.35
68257;DHT22;55069;51.568;4.656;2023-01-19T08:50:38;1.26;96.33
68257;DHT22;55069;51.568;4.656;2023-01-19T08:53:03;1.23;96.33
68257;DHT22;55069;51.568;4.656;2023-01-19T08:55:32;1.27;96.29
68257;DHT22;55069;51.568;4.656;2023-01-19T08:57:58;1.23;96.28
68257;DHT22;55069;51.568;4.656;2023-01-19T09:00:24;1.21;96.21
68257;DHT22;55069;51.568;4.656;2023-01-19T09:02:51;1.26;96.22
68257;DHT22;55069;51.568;4.656;2023-01-19T09:05:17;1.28;96.22
68257;DHT22;55069;51.568;4.656;2023-01-19T09:07:44;1.32;96.18
68257;DHT22;55069;51.568;4.656;2023-01-19T09:10:10;1.35;96.14
68257;DHT22;55069;51.568;4.656;2023-01-19T09:12:36;1.40;96.21
68257;DHT22;55069;51.568;4.656;2023-01-19T09:15:02;1.44;96.20
68257;DHT22;55069;51.568;4.656;2023-01-19T09:17:27;1.51;96.20
68257;DHT22;55069;51.568;4.656;2023-01-19T09:19:52;1.55;96.18
68257;DHT22;55069;51.568;4.656;2023-01-19T09:22:18;1.65;96.14
68257;DHT22;55069;51.568;4.656;2023-01-19T09:24:43;1.76;96.07
68257;DHT22;55069;51.568;4.656;2023-01-19T09:27:09;1.83;96.03
68257;DHT22;55069;51.568;4.656;2023-01-19T09:29:34;1.83;95.89
68257;DHT22;55069;51.568;4.656;2023-01-19T09:32:01;1.92;95.82
68257;DHT22;55069;51.568;4.656;2023-01-19T09:34:26;1.95;95.67
68257;DHT22;55069;51.568;4.656;2023-01-19T09:36:52;2.00;95.50
68257;DHT22;55069;51.568;4.656;2023-01-19T09:39:18;2.07;95.43
68257;DHT22;55069;51.568;4.656;2023-01-19T09:41:48;2.13;95.36
68257;DHT22;55069;51.568;4.656;2023-01-19T09:44:27;2.23;95.30
68257;DHT22;55069;51.568;4.656;2023-01-19T09:46:53;2.24;95.18
68257;DHT22;55069;51.568;4.656;2023-01-19T09:49:25;2.34;95.06
68257;DHT22;55069;51.568;4.656;2023-01-19T09:51:52;2.38;94.97
68257;DHT22;55069;51.568;4.656;2023-01-19T09:54:19;2.38;94.78
68257;DHT22;55069;51.568;4.656;2023-01-19T09:56:47;2.40;94.81
68257;DHT22;55069;51.568;4.656;2023-01-19T09:59:20;2.51;94.81
68257;DHT22;55069;51.568;4.656;2023-01-19T10:10:23;2.72;94.31
68257;DHT22;55069;51.568;4.656;2023-01-19T10:13:11;2.76;93.85
68257;DHT22;55069;51.568;4.656;2023-01-19T10:16:01;2.84;93.92
68257;DHT22;55069;51.568;4.656;2023-01-19T10:18:41;2.89;93.81
68257;DHT22;55069;51.568;4.656;2023-01-19T10:21:40;2.93;93.63
68257;DHT22;55069;51.568;4.656;2023-01-19T10:24:17;2.97;93.67
68257;DHT22;55069;51.568;4.656;2023-01-19T10:26:52;3.04;93.58
68257;DHT22;55069;51.568;4.656;2023-01-19T10:32:02;3.09;93.23
68257;DHT22;55069;51.568;4.656;2023-01-19T10:34:29;3.16;93.15
68257;DHT22;55069;51.568;4.656;2023-01-19T10:37:01;3.22;92.29
68257;DHT22;55069;51.568;4.656;2023-01-19T10:39:28;3.26;92.14
68257;DHT22;55069;51.568;4.656;2023-01-19T10:41:53;3.33;91.84
68257;DHT22;55069;51.568;4.656;2023-01-19T10:44:25;3.37;91.99
68257;DHT22;55069;51.568;4.656;2023-01-19T10:46:53;3.45;91.72
68257;DHT22;55069;51.568;4.656;2023-01-19T10:49:26;3.47;91.35
68257;DHT22;55069;51.568;4.656;2023-01-19T10:51:53;3.47;90.76
68257;DHT22;55069;51.568;4.656;2023-01-19T10:54:20;3.51;90.65
68257;DHT22;55069;51.568;4.656;2023-01-19T10:57:06;3.60;91.32
68257;DHT22;55069;51.568;4.656;2023-01-19T11:04:34;3.72;91.03
68257;DHT22;55069;51.568;4.656;2023-01-19T11:07:20;3.81;91.04
68257;DHT22;55069;51.568;4.656;2023-01-19T11:09:46;3.86;90.33
68257;DHT22;55069;51.568;4.656;2023-01-19T11:12:17;3.83;90.00
68257;DHT22;55069;51.568;4.656;2023-01-19T11:14:45;3.89;89.95
68257;DHT22;55069;51.568;4.656;2023-01-19T11:17:20;3.93;90.01
68257;DHT22;55069;51.568;4.656;2023-01-19T11:19:56;3.99;89.34
68257;DHT22;55069;51.568;4.656;2023-01-19T11:22:26;4.02;89.30
68257;DHT22;55069;51.568;4.656;2023-01-19T11:24:57;4.03;88.93
68257;DHT22;55069;51.568;4.656;2023-01-19T11:27:23;4.14;89.97
68257;DHT22;55069;51.568;4.656;2023-01-19T11:30:05;4.19;89.07
68257;DHT22;55069;51.568;4.656;2023-01-19T11:32:34;4.24;89.47
68257;DHT22;55069;51.568;4.656;2023-01-19T11:35:35;4.33;89.50
68257;DHT22;55069;51.568;4.656;2023-01-19T11:38:20;4.38;89.36
68257;DHT22;55069;51.568;4.656;2023-01-19T11:40:53;4.44;89.17
68257;DHT22;55069;51.568;4.656;2023-01-19T11:43:22;4.51;89.29
68257;DHT22;55069;51.568;4.656;2023-01-19T11:45:48;4.38;88.37
68257;DHT22;55069;51.568;4.656;2023-01-19T11:48:29;4.46;88.11
68257;DHT22;55069;51.568;4.656;2023-01-19T11:50:59;4.48;87.30
68257;DHT22;55069;51.568;4.656;2023-01-19T11:53:32;4.56;87.76
68257;DHT22;55069;51.568;4.656;2023-01-19T11:58:42;4.58;87.52
68257;DHT22;55069;51.568;4.656;2023-01-19T12:01:32;4.57;87.85
68257;DHT22;55069;51.568;4.656;2023-01-19T12:04:21;4.67;87.36
68257;DHT22;55069;51.568;4.656;2023-01-19T12:06:52;4.68;87.56
68257;DHT22;55069;51.568;4.656;2023-01-19T12:09:42;4.74;86.95
68257;DHT22;55069;51.568;4.656;2023-01-19T12:14:54;4.88;86.58
68257;DHT22;55069;51.568;4.656;2023-01-19T12:17:31;4.95;86.47
68257;DHT22;55069;51.568;4.656;2023-01-19T12:26:07;5.18;86.71
68257;DHT22;55069;51.568;4.656;2023-01-19T12:28:40;5.19;87.47
68257;DHT22;55069;51.568;4.656;2023-01-19T12:31:06;4.98;85.89
68257;DHT22;55069;51.568;4.656;2023-01-19T12:33:39;4.88;86.46
68257;DHT22;55069;51.568;4.656;2023-01-19T12:38:48;4.61;86.67
68257;DHT22;55069;51.568;4.656;2023-01-19T12:41:30;4.47;87.12
68257;DHT22;55069;51.568;4.656;2023-01-19T12:46:37;4.36;87.38
68257;DHT22;55069;51.568;4.656;2023-01-19T12:49:22;4.43;87.62
68257;DHT22;55069;51.568;4.656;2023-01-19T12:51:51;4.50;87.33
68257;DHT22;55069;51.568;4.656;2023-01-19T12:54:31;4.67;87.43
68257;DHT22;55069;51.568;4.656;2023-01-19T12:57:01;4.79;87.42
68257;DHT22;55069;51.568;4.656;2023-01-19T12:59:30;4.93;86.96
68257;DHT22;55069;51.568;4.656;2023-01-19T13:07:28;5.58;83.63
68257;DHT22;55069;51.568;4.656;2023-01-19T13:09:54;5.77;82.06
68257;DHT22;55069;51.568;4.656;2023-01-19T13:12:24;5.97;82.91
68257;DHT22;55069;51.568;4.656;2023-01-19T13:15:55;6.13;82.15
68257;DHT22;55069;51.568;4.656;2023-01-19T13:17:56;6.02;80.37
68257;DHT22;55069;51.568;4.656;2023-01-19T13:20:30;5.92;81.59
68257;DHT22;55069;51.568;4.656;2023-01-19T13:23:23;6.12;81.67
68257;DHT22;55069;51.568;4.656;2023-01-19T13:26:02;6.25;82.84
68257;DHT22;55069;51.568;4.656;2023-01-19T13:28:38;6.36;80.60
68257;DHT22;55069;51.568;4.656;2023-01-19T13:31:05;6.23;79.62
68257;DHT22;55069;51.568;4.656;2023-01-19T13:33:51;6.44;78.42
68257;DHT22;55069;51.568;4.656;2023-01-19T13:36:34;6.40;80.34
68257;DHT22;55069;51.568;4.656;2023-01-19T13:39:04;6.61;79.14
68257;DHT22;55069;51.568;4.656;2023-01-19T13:41:34;6.33;79.06
68257;DHT22;55069;51.568;4.656;2023-01-19T13:44:17;6.15;80.30
68257;DHT22;55069;51.568;4.656;2023-01-19T13:46:45;5.98;81.17
68257;DHT22;55069;51.568;4.656;2023-01-19T13:51:41;5.55;80.87
68257;DHT22;55069;51.568;4.656;2023-01-19T13:54:16;5.55;82.44
68257;DHT22;55069;51.568;4.656;2023-01-19T13:56:48;5.54;82.28
68257;DHT22;55069;51.568;4.656;2023-01-19T13:59:16;5.50;82.07
68257;DHT22;55069;51.568;4.656;2023-01-19T14:01:43;5.43;79.80
68257;DHT22;55069;51.568;4.656;2023-01-19T14:04:30;5.61;76.94
68257;DHT22;55069;51.568;4.656;2023-01-19T14:07:02;5.53;77.78
68257;DHT22;55069;51.568;4.656;2023-01-19T14:09:29;5.44;77.78
68257;DHT22;55069;51.568;4.656;2023-01-19T14:12:10;5.47;80.36
68257;DHT22;55069;51.568;4.656;2023-01-19T14:14:36;5.50;80.48
68257;DHT22;55069;51.568;4.656;2023-01-19T14:17:02;5.40;80.03
68257;DHT22;55069;51.568;4.656;2023-01-19T14:19:28;5.20;75.98
68257;DHT22;55069;51.568;4.656;2023-01-19T14:21:59;5.09;76.47
68257;DHT22;55069;51.568;4.656;2023-01-19T14:24:25;4.91;76.10
68257;DHT22;55069;51.568;4.656;2023-01-19T14:27:14;4.75;76.63
68257;DHT22;55069;51.568;4.656;2023-01-19T14:29:42;4.67;75.13
68257;DHT22;55069;51.568;4.656;2023-01-19T14:32:20;4.61;76.88
68257;DHT22;55069;51.568;4.656;2023-01-19T14:37:22;4.58;78.74
68257;DHT22;55069;51.568;4.656;2023-01-19T14:39:49;4.61;81.05
68257;DHT22;55069;51.568;4.656;2023-01-19T14:42:36;4.64;83.88
68257;DHT22;55069;51.568;4.656;2023-01-19T14:45:15;4.69;83.71
68257;DHT22;55069;51.568;4.656;2023-01-19T14:47:42;4.68;86.52
68257;DHT22;55069;51.568;4.656;2023-01-19T14:50:22;4.48;84.58
68257;DHT22;55069;51.568;4.656;2023-01-19T14:55:27;4.27;85.62
68257;DHT22;55069;51.568;4.656;2023-01-19T14:57:56;4.17;87.32
68257;DHT22;55069;51.568;4.656;2023-01-19T15:00:21;4.07;87.64
68257;DHT22;55069;51.568;4.656;2023-01-19T15:02:47;4.02;88.33
68257;DHT22;55069;51.568;4.656;2023-01-19T15:05:13;3.99;88.05
68257;DHT22;55069;51.568;4.656;2023-01-19T15:07:41;4.02;88.48
68257;DHT22;55069;51.568;4.656;2023-01-19T15:10:25;4.03;88.83
68257;DHT22;55069;51.568;4.656;2023-01-19T15:12:52;3.98;89.56
68257;DHT22;55069;51.568;4.656;2023-01-19T15:15:22;3.96;89.18
68257;DHT22;55069;51.568;4.656;2023-01-19T15:17:50;3.99;89.92
68257;DHT22;55069;51.568;4.656;2023-01-19T15:20:19;3.98;88.68
68257;DHT22;55069;51.568;4.656;2023-01-19T15:22:45;4.05;89.19
68257;DHT22;55069;51.568;4.656;2023-01-19T15:25:13;4.11;90.39
68257;DHT22;55069;51.568;4.656;2023-01-19T15:27:39;4.11;89.54
68257;DHT22;55069;51.568;4.656;2023-01-19T15:32:37;4.06;88.38
68257;DHT22;55069;51.568;4.656;2023-01-19T15:35:21;3.93;89.17
68257;DHT22;55069;51.568;4.656;2023-01-19T15:37:48;3.82;89.98
68257;DHT22;55069;51.568;4.656;2023-01-19T15:40:14;3.67;89.84
68257;DHT22;55069;51.568;4.656;2023-01-19T15:42:40;3.57;90.33
68257;DHT22;55069;51.568;4.656;2023-01-19T15:45:31;3.38;90.81
68257;DHT22;55069;51.568;4.656;2023-01-19T15:47:57;3.33;91.03
68257;DHT22;55069;51.568;4.656;2023-01-19T15:50:24;3.22;91.29
68257;DHT22;55069;51.568;4.656;2023-01-19T15:52:50;3.22;90.99
68257;DHT22;55069;51.568;4.656;2023-01-19T15:55:16;3.09;91.61
68257;DHT22;55069;51.568;4.656;2023-01-19T15:57:41;3.02;92.16
68257;DHT22;55069;51.568;4.656;2023-01-19T16:00:22;3.02;92.81
68257;DHT22;55069;51.568;4.656;2023-01-19T16:02:48;2.92;92.18
68257;DHT22;55069;51.568;4.656;2023-01-19T16:05:16;2.93;93.03
68257;DHT22;55069;51.568;4.656;2023-01-19T16:07:41;2.91;92.93
68257;DHT22;55069;51.568;4.656;2023-01-19T16:10:07;2.88;92.56
68257;DHT22;55069;51.568;4.656;2023-01-19T16:12:33;2.85;92.92
68257;DHT22;55069;51.568;4.656;2023-01-19T16:15:00;2.76;92.98
68257;DHT22;55069;51.568;4.656;2023-01-19T16:17:25;2.71;93.02
68257;DHT22;55069;51.568;4.656;2023-01-19T16:19:51;2.69;93.19
68257;DHT22;55069;51.568;4.656;2023-01-19T16:22:16;2.62;93.23
68257;DHT22;55069;51.568;4.656;2023-01-19T16:24:42;2.58;93.09
68257;DHT22;55069;51.568;4.656;2023-01-19T16:27:07;2.45;92.87
68257;DHT22;55069;51.568;4.656;2023-01-19T16:29:33;2.40;92.93
68257;DHT22;55069;51.568;4.656;2023-01-19T16:31:59;2.37;93.11
68257;DHT22;55069;51.568;4.656;2023-01-19T16:34:24;2.31;93.26
68257;DHT22;55069;51.568;4.656;2023-01-19T16:36:50;2.28;93.32
68257;DHT22;55069;51.568;4.656;2023-01-19T16:39:16;2.23;93.57
68257;DHT22;55069;51.568;4.656;2023-01-19T16:41:43;2.13;93.85
68257;DHT22;55069;51.568;4.656;2023-01-19T16:44:13;2.13;94.03
68257;DHT22;55069;51.568;4.656;2023-01-19T16:46:42;2.11;94.09
68257;DHT22;55069;51.568;4.656;2023-01-19T16:49:13;2.06;94.36
68257;DHT22;55069;51.568;4.656;2023-01-19T16:51:40;2.00;94.44
68257;DHT22;55069;51.568;4.656;2023-01-19T16:54:06;1.96;94.54
68257;DHT22;55069;51.568;4.656;2023-01-19T16:56:31;1.93;94.63
68257;DHT22;55069;51.568;4.656;2023-01-19T16:58:58;1.86;94.48
68257;DHT22;55069;51.568;4.656;2023-01-19T17:01:25;1.85;94.49
68257;DHT22;55069;51.568;4.656;2023-01-19T17:03:51;1.87;94.57